createdAt,value
2022-08-12T00:00:36.600Z,4.40
2022-08-12T00:03:22.628Z,3.97
2022-08-12T00:06:09.461Z,4.60
2022-08-12T00:08:59.082Z,4.30
2022-08-12T00:11:46.689Z,3.97
2022-08-12T00:14:32.826Z,4.35
2022-08-12T00:17:19.644Z,4.35
2022-08-12T00:20:05.212Z,4.38
2022-08-12T00:22:58.665Z,4.53
2022-08-12T00:26:21.671Z,4.50
2022-08-12T00:29:01.108Z,4.20
2022-08-12T00:31:48.866Z,4.50
2022-08-12T00:34:36.016Z,4.50
2022-08-12T00:37:21.257Z,4.47
2022-08-12T00:40:11.044Z,4.40
2022-08-12T00:42:40.590Z,4.40
2022-08-12T00:45:09.867Z,4.53
2022-08-12T00:47:39.584Z,4.47
2022-08-12T00:50:17.870Z,4.40
2022-08-12T00:52:48.157Z,4.47
2022-08-12T00:55:19.605Z,4.75
2022-08-12T00:57:52.612Z,4.53
2022-08-12T01:00:23.899Z,4.55
2022-08-12T01:02:57.389Z,4.78
2022-08-12T01:05:45.276Z,4.50
2022-08-12T01:08:43.030Z,5.00
2022-08-12T01:11:32.190Z,4.60
2022-08-12T01:14:02.784Z,5.20
2022-08-12T01:16:31.081Z,4.78
2022-08-12T01:19:00.384Z,5.10
2022-08-12T01:22:11.885Z,5.00
2022-08-12T01:24:54.648Z,4.85
2022-08-12T01:27:24.465Z,5.00
2022-08-12T01:29:54.514Z,5.50
2022-08-12T01:32:23.671Z,5.35
2022-08-12T01:35:05.607Z,4.97
2022-08-12T01:37:37.820Z,5.13
2022-08-12T01:40:31.436Z,5.10
2022-08-12T01:43:04.077Z,5.20
2022-08-12T01:45:43.390Z,5.90
2022-08-12T01:48:39.326Z,5.38
2022-08-12T01:51:24.404Z,5.50
2022-08-12T01:54:12.636Z,5.78
2022-08-12T01:56:49.198Z,5.60
2022-08-12T01:59:39.572Z,5.65
2022-08-12T02:02:11.735Z,5.80
2022-08-12T02:05:10.765Z,6.20
2022-08-12T02:08:05.037Z,6.00
2022-08-12T02:11:02.077Z,6.32
2022-08-12T02:14:13.462Z,6.47
2022-08-12T02:17:05.633Z,6.55
2022-08-12T02:19:49.112Z,6.90
2022-08-12T02:22:28.682Z,6.78
2022-08-12T02:25:04.463Z,6.78
2022-08-12T02:27:39.578Z,7.45
2022-08-12T02:30:12.226Z,7.15
2022-08-12T02:32:42.795Z,7.88
2022-08-12T02:35:14.950Z,8.32
2022-08-12T02:37:45.510Z,8.50
2022-08-12T02:40:15.276Z,8.48
2022-08-12T02:42:52.196Z,8.48
2022-08-12T02:45:33.500Z,8.50
2022-08-12T02:48:07.495Z,8.73
2022-08-12T02:50:39.072Z,9.07
2022-08-12T02:53:08.048Z,8.13
2022-08-12T02:55:37.360Z,8.55
2022-08-12T02:58:09.211Z,8.52
2022-08-12T03:00:43.009Z,8.68
2022-08-12T03:03:13.815Z,8.48
2022-08-12T03:05:49.397Z,8.98
2022-08-12T03:08:32.113Z,8.10
2022-08-12T03:11:04.792Z,7.55
2022-08-12T03:13:39.011Z,8.05
2022-08-12T03:16:09.286Z,8.05
2022-08-12T03:18:38.147Z,7.80
2022-08-12T03:21:06.438Z,7.82
2022-08-12T03:23:37.513Z,7.60
2022-08-12T03:26:05.640Z,7.88
2022-08-12T03:28:54.459Z,7.72
2022-08-12T03:31:25.987Z,7.55
2022-08-12T03:34:01.241Z,8.20
2022-08-12T03:36:33.561Z,8.70
2022-08-12T03:39:36.016Z,9.10
2022-08-12T03:42:23.105Z,8.65
2022-08-12T03:45:15.978Z,8.88
2022-08-12T03:48:07.599Z,9.63
2022-08-12T03:50:53.443Z,10.05
2022-08-12T03:53:43.841Z,10.52
2022-08-12T03:56:29.249Z,10.40
2022-08-12T03:59:18.284Z,10.75
2022-08-12T04:01:52.564Z,11.18
2022-08-12T04:04:23.738Z,11.77
2022-08-12T04:06:52.362Z,12.82
2022-08-12T04:09:22.243Z,12.52
2022-08-12T04:12:08.856Z,12.50
2022-08-12T04:14:37.723Z,12.43
2022-08-12T04:17:08.413Z,13.02
2022-08-12T04:19:38.955Z,13.43
2022-08-12T04:22:07.065Z,14.30
2022-08-12T04:24:36.714Z,14.93
2022-08-12T04:27:09.464Z,15.52
2022-08-12T04:30:30.098Z,15.82
2022-08-12T04:32:26.506Z,16.05
2022-08-12T04:34:56.464Z,17.65
2022-08-12T04:37:24.714Z,16.42
2022-08-12T04:39:54.152Z,17.15
2022-08-12T04:42:25.629Z,15.65
2022-08-12T04:44:53.687Z,16.75
2022-08-12T04:47:22.863Z,15.40
2022-08-12T04:49:50.982Z,15.45
2022-08-12T04:52:21.952Z,15.85
2022-08-12T04:54:53.364Z,15.68
2022-08-12T04:57:21.335Z,15.50
2022-08-12T04:59:49.662Z,16.83
2022-08-12T05:02:20.995Z,15.82
2022-08-12T05:04:51.517Z,16.33
2022-08-12T05:07:21.901Z,16.50
2022-08-12T05:09:59.714Z,15.80
2022-08-12T05:12:34.381Z,16.35
2022-08-12T05:15:02.601Z,17.17
2022-08-12T05:17:30.903Z,16.80
2022-08-12T05:19:59.771Z,16.40
2022-08-12T05:22:30.241Z,16.27
2022-08-12T05:25:06.778Z,17.50
2022-08-12T05:27:34.894Z,15.95
2022-08-12T05:30:07.424Z,15.57
2022-08-12T05:32:37.619Z,15.75
2022-08-12T05:35:08.148Z,14.88
2022-08-12T05:37:37.580Z,15.93
2022-08-12T05:40:11.207Z,15.07
2022-08-12T05:42:39.959Z,15.13
2022-08-12T05:45:09.486Z,14.77
2022-08-12T05:47:53.464Z,14.15
2022-08-12T05:50:22.610Z,13.70
2022-08-12T05:52:53.035Z,14.10
2022-08-12T05:55:25.825Z,14.25
2022-08-12T05:57:57.354Z,13.40
2022-08-12T06:00:26.525Z,13.52
2022-08-12T06:02:57.212Z,13.85
2022-08-12T06:05:25.273Z,13.50
2022-08-12T06:08:02.259Z,12.95
2022-08-12T06:10:33.049Z,12.80
2022-08-12T06:13:02.613Z,12.90
2022-08-12T06:15:34.763Z,12.40
2022-08-12T06:18:13.645Z,12.65
2022-08-12T06:20:44.076Z,12.07
2022-08-12T06:23:15.335Z,11.68
2022-08-12T06:25:43.633Z,12.48
2022-08-12T06:28:17.691Z,11.00
2022-08-12T06:31:08.290Z,10.73
2022-08-12T06:33:55.059Z,9.63
2022-08-12T06:36:29.755Z,10.20
2022-08-12T06:39:03.442Z,9.07
2022-08-12T06:42:31.114Z,9.40
2022-08-12T06:44:36.936Z,9.35
2022-08-12T06:47:05.250Z,9.63
2022-08-12T06:49:36.883Z,9.98
2022-08-12T06:52:07.415Z,9.43
2022-08-12T06:54:36.921Z,8.73
2022-08-12T06:58:07.594Z,9.63
2022-08-12T06:59:53.140Z,8.15
2022-08-12T07:02:22.694Z,8.27
2022-08-12T07:04:50.794Z,8.18
2022-08-12T07:07:19.769Z,7.78
2022-08-12T07:10:03.854Z,8.35
2022-08-12T07:12:35.284Z,8.07
2022-08-12T07:15:03.480Z,7.13
2022-08-12T07:17:36.571Z,7.25
2022-08-12T07:20:07.064Z,6.88
2022-08-12T07:22:37.797Z,6.70
2022-08-12T07:25:27.290Z,6.97
2022-08-12T07:27:56.346Z,6.53
2022-08-12T07:30:24.692Z,6.72
2022-08-12T07:32:53.122Z,6.60
2022-08-12T07:35:21.470Z,6.90
2022-08-12T07:37:50.547Z,6.13
2022-08-12T07:40:21.551Z,6.70
2022-08-12T07:42:49.963Z,6.40
2022-08-12T07:45:19.622Z,6.43
2022-08-12T07:47:48.901Z,6.45
2022-08-12T07:50:23.608Z,6.40
2022-08-12T07:52:52.223Z,5.90
2022-08-12T07:55:21.971Z,6.85
2022-08-12T07:57:57.838Z,6.53
2022-08-12T08:00:26.424Z,6.20
2022-08-12T08:02:55.147Z,6.28
2022-08-12T08:05:25.897Z,5.97
2022-08-12T08:07:55.713Z,5.50
2022-08-12T08:10:26.862Z,6.47
2022-08-12T08:12:54.142Z,6.57
2022-08-12T08:15:38.528Z,7.38
2022-08-12T08:18:16.039Z,6.10
2022-08-12T08:20:56.437Z,5.63
2022-08-12T08:23:56.372Z,5.78
2022-08-12T08:26:30.859Z,6.82
2022-08-12T08:28:59.632Z,8.13
2022-08-12T08:31:28.305Z,8.13
2022-08-12T08:34:05.273Z,7.45
2022-08-12T08:36:44.012Z,5.68
2022-08-12T08:39:16.977Z,5.15
2022-08-12T08:42:20.193Z,4.85
2022-08-12T08:44:58.127Z,5.15
2022-08-12T08:47:26.591Z,5.05
2022-08-12T08:49:57.686Z,5.15
2022-08-12T08:52:46.648Z,5.03
2022-08-12T08:55:20.871Z,5.20
2022-08-12T08:57:55.741Z,5.03
2022-08-12T09:00:24.668Z,5.05
2022-08-12T09:02:59.338Z,4.82
2022-08-12T09:05:28.306Z,4.80
2022-08-12T09:12:07.146Z,4.60
2022-08-12T09:17:03.143Z,4.90
2022-08-12T09:19:33.531Z,4.97
2022-08-12T09:22:04.871Z,5.03
2022-08-12T09:24:33.281Z,5.22
2022-08-12T09:27:03.719Z,5.00
2022-08-12T09:30:12.515Z,5.20
2022-08-12T09:32:56.986Z,4.93
2022-08-12T09:35:18.606Z,4.95
2022-08-12T09:37:59.075Z,4.80
2022-08-12T09:40:57.610Z,4.63
2022-08-12T09:43:38.646Z,4.07
2022-08-12T09:46:25.554Z,4.63
2022-08-12T09:48:57.346Z,4.50
2022-08-12T09:51:37.764Z,4.63
2022-08-12T09:54:30.862Z,4.57
2022-08-12T09:58:08.110Z,4.47
2022-08-12T10:00:35.212Z,4.78
2022-08-12T10:03:32.465Z,4.05
2022-08-12T10:06:31.952Z,4.35
2022-08-12T10:09:08.519Z,5.15
2022-08-12T10:12:12.065Z,4.07
2022-08-12T10:14:54.496Z,4.57
2022-08-12T10:17:34.920Z,4.80
2022-08-12T10:20:36.464Z,4.55
2022-08-12T10:23:07.011Z,4.50
2022-08-12T10:26:34.796Z,4.70
2022-08-12T10:29:15.752Z,4.88
2022-08-12T10:32:45.204Z,4.50
2022-08-12T10:35:20.512Z,4.53
2022-08-12T10:38:38.064Z,4.15
2022-08-12T10:41:07.754Z,3.60
2022-08-12T10:43:55.005Z,4.00
2022-08-12T10:46:31.183Z,4.13
2022-08-12T10:49:05.585Z,4.28
2022-08-12T10:52:04.933Z,3.63
2022-08-12T10:54:49.255Z,3.72
2022-08-12T10:57:50.413Z,3.92
2022-08-12T11:01:25.922Z,3.60
2022-08-12T11:04:27.369Z,3.70
2022-08-12T11:07:05.444Z,3.88
2022-08-12T11:09:41.574Z,3.75
2022-08-12T11:12:56.718Z,3.88
2022-08-12T11:15:24.163Z,3.90
2022-08-12T11:18:27.156Z,3.63
2022-08-12T11:21:16.659Z,3.85
2022-08-12T11:24:31.668Z,3.70
2022-08-12T11:27:21.286Z,3.88
2022-08-12T11:30:30.646Z,3.65
2022-08-12T11:33:11.690Z,3.55
2022-08-12T11:39:28.440Z,3.60
2022-08-12T11:42:35.207Z,3.78
2022-08-12T11:45:10.213Z,3.75
2022-08-12T11:51:57.851Z,3.67
2022-08-12T11:54:54.402Z,3.70
2022-08-12T11:58:48.860Z,3.53
2022-08-12T12:03:17.352Z,3.42
2022-08-12T12:05:48.822Z,3.80
2022-08-12T12:08:39.093Z,4.00
2022-08-12T12:11:16.247Z,4.07
2022-08-12T12:14:06.683Z,3.83
2022-08-12T12:16:50.832Z,3.85
2022-08-12T12:19:19.983Z,3.45
2022-08-12T12:21:52.857Z,3.40
2022-08-12T12:24:22.655Z,3.60
2022-08-12T12:26:59.544Z,3.80
2022-08-12T12:30:19.314Z,3.60
2022-08-12T12:32:31.894Z,3.40
2022-08-12T12:35:13.543Z,3.72
2022-08-12T12:38:14.750Z,3.60
2022-08-12T12:40:53.470Z,3.70
2022-08-12T12:43:43.673Z,3.50
2022-08-12T12:46:25.452Z,3.53
2022-08-12T12:48:57.226Z,3.78
2022-08-12T12:51:48.608Z,3.70
2022-08-12T12:54:18.871Z,3.47
2022-08-12T12:57:05.355Z,3.70
2022-08-12T12:59:56.436Z,3.95
2022-08-12T13:05:16.233Z,3.50
2022-08-12T13:07:49.577Z,3.60
2022-08-12T13:10:30.770Z,3.35
2022-08-12T13:13:09.643Z,3.58
2022-08-12T13:15:59.513Z,3.40
2022-08-12T13:18:36.719Z,3.92
2022-08-12T13:21:15.851Z,3.33
2022-08-12T13:24:00.890Z,3.65
2022-08-12T13:26:34.776Z,3.42
2022-08-12T13:29:16.116Z,3.58
2022-08-12T13:32:17.788Z,3.40
2022-08-12T13:34:35.647Z,3.90
2022-08-12T13:37:09.894Z,4.20
2022-08-12T13:39:38.561Z,3.80
2022-08-12T13:42:14.483Z,3.60
2022-08-12T13:44:43.324Z,3.80
2022-08-12T13:47:19.671Z,4.05
2022-08-12T13:49:55.186Z,3.67
2022-08-12T13:52:25.824Z,3.35
2022-08-12T13:54:54.162Z,4.28
2022-08-12T13:57:26.511Z,3.83
2022-08-12T14:00:00.518Z,3.80
2022-08-12T14:02:32.464Z,3.90
2022-08-12T14:05:00.604Z,3.72
2022-08-12T14:07:48.832Z,3.78
2022-08-12T14:10:38.971Z,3.63
2022-08-12T14:14:03.427Z,3.60
2022-08-12T14:16:37.402Z,3.90
2022-08-12T14:19:10.590Z,3.80
2022-08-12T14:21:59.743Z,3.70
2022-08-12T14:24:40.450Z,3.47
2022-08-12T14:27:11.213Z,4.20
2022-08-12T14:30:04.333Z,4.32
2022-08-12T14:32:35.675Z,4.53
2022-08-12T14:35:06.538Z,4.40
2022-08-12T14:37:57.414Z,4.10
2022-08-12T14:40:29.837Z,4.13
2022-08-12T14:43:02.753Z,4.20
2022-08-12T14:45:45.054Z,4.50
2022-08-12T14:48:24.520Z,4.50
2022-08-12T14:52:16.247Z,4.43
2022-08-12T14:59:56.736Z,4.43
2022-08-12T15:02:28.689Z,4.22
2022-08-12T15:04:59.674Z,4.25
2022-08-12T15:07:48.696Z,4.25
2022-08-12T15:10:32.417Z,4.38
2022-08-12T15:13:08.784Z,3.83
2022-08-12T15:15:44.255Z,4.13
2022-08-12T15:18:15.966Z,4.13
2022-08-12T15:20:51.246Z,4.18
2022-08-12T15:23:21.381Z,3.83
2022-08-12T15:26:02.706Z,4.30
2022-08-12T15:28:35.487Z,4.63
2022-08-12T15:31:09.572Z,3.83
2022-08-12T15:33:54.097Z,4.07
2022-08-12T15:36:54.214Z,3.63
2022-08-12T15:39:17.641Z,3.70
2022-08-12T15:41:49.038Z,4.03
2022-08-12T15:44:42.260Z,3.83
2022-08-12T15:47:09.113Z,4.00
2022-08-12T15:49:54.568Z,3.58
2022-08-12T15:52:29.810Z,3.80
2022-08-12T15:55:04.927Z,3.80
2022-08-12T15:57:36.785Z,3.50
2022-08-12T16:00:09.477Z,3.70
2022-08-12T16:02:58.374Z,4.35
2022-08-12T16:06:19.016Z,3.50
2022-08-12T16:08:26.975Z,3.65
2022-08-12T16:10:56.377Z,3.95
2022-08-12T16:13:32.792Z,3.80
2022-08-12T16:16:23.140Z,3.60
2022-08-12T16:18:59.532Z,3.78
2022-08-12T16:21:52.361Z,3.63
2022-08-12T16:24:20.474Z,3.60
2022-08-12T16:26:51.536Z,3.40
2022-08-12T16:29:38.509Z,3.42
2022-08-12T16:32:31.130Z,3.65
2022-08-12T16:35:01.397Z,3.72
2022-08-12T16:38:28.029Z,4.13
2022-08-12T16:40:22.912Z,3.20
2022-08-12T16:42:54.012Z,3.33
2022-08-12T16:46:04.482Z,3.90
2022-08-12T16:48:33.822Z,3.35
2022-08-12T16:51:08.175Z,3.35
2022-08-12T16:53:44.175Z,3.38
2022-08-12T16:56:32.165Z,3.50
2022-08-12T16:59:00.690Z,3.50
2022-08-12T17:01:30.306Z,3.75
2022-08-12T17:04:08.693Z,3.25
2022-08-12T17:06:41.617Z,3.40
2022-08-12T17:09:17.133Z,3.20
2022-08-12T17:11:49.559Z,3.20
2022-08-12T17:14:23.646Z,3.22
2022-08-12T17:16:55.075Z,3.30
2022-08-12T17:20:34.893Z,3.30
2022-08-12T17:22:16.730Z,3.05
2022-08-12T17:24:55.567Z,3.00
2022-08-12T17:27:26.577Z,2.97
2022-08-12T17:30:04.575Z,3.00
2022-08-12T17:32:39.994Z,3.17
2022-08-12T17:35:30.042Z,3.00
2022-08-12T17:38:11.890Z,3.30
2022-08-12T17:40:40.527Z,3.55
2022-08-12T17:43:54.938Z,3.20
2022-08-12T17:46:01.984Z,3.53
2022-08-12T17:48:34.877Z,3.10
2022-08-12T17:51:15.407Z,3.40
2022-08-12T17:54:11.444Z,3.40
2022-08-12T17:56:37.865Z,3.90
2022-08-12T17:59:12.123Z,3.47
2022-08-12T18:01:45.573Z,3.20
2022-08-12T18:04:22.820Z,3.55
2022-08-12T18:07:06.391Z,3.35
2022-08-12T18:09:37.567Z,3.40
2022-08-12T18:12:34.795Z,3.08
2022-08-12T18:15:08.895Z,3.28
2022-08-12T18:17:39.492Z,3.28
2022-08-12T18:20:15.564Z,3.55
2022-08-12T18:22:45.355Z,3.60
2022-08-12T18:26:14.168Z,3.10
2022-08-12T18:28:29.067Z,3.17
2022-08-12T18:31:03.881Z,3.05
2022-08-12T18:33:41.588Z,3.55
2022-08-12T18:36:21.158Z,3.90
2022-08-12T18:38:56.203Z,4.00
2022-08-12T18:41:34.230Z,3.60
2022-08-12T18:44:08.079Z,3.90
2022-08-12T18:46:54.035Z,3.28
2022-08-12T18:49:30.717Z,3.90
2022-08-12T18:52:08.168Z,4.15
2022-08-12T18:54:53.833Z,3.38
2022-08-12T18:58:05.828Z,3.55
2022-08-12T19:00:21.073Z,3.70
2022-08-12T19:02:53.835Z,4.00
2022-08-12T19:05:53.521Z,3.80
2022-08-12T19:08:14.153Z,3.70
2022-08-12T19:10:49.995Z,3.50
2022-08-12T19:13:36.801Z,3.50
2022-08-12T19:16:11.138Z,3.63
2022-08-12T19:18:44.749Z,3.70
2022-08-12T19:21:16.970Z,3.50
2022-08-12T19:24:10.633Z,3.30
2022-08-12T19:26:38.770Z,3.60
2022-08-12T19:29:08.742Z,3.55
2022-08-12T19:31:58.225Z,3.70
2022-08-12T19:35:32.829Z,3.70
2022-08-12T19:37:26.592Z,3.75
2022-08-12T19:40:09.872Z,3.80
2022-08-12T19:43:00.623Z,3.80
2022-08-12T19:45:43.393Z,3.50
2022-08-12T19:48:19.418Z,3.72
2022-08-12T19:50:52.753Z,3.63
2022-08-12T19:53:22.999Z,3.70
2022-08-12T19:55:53.461Z,3.78
2022-08-12T19:58:22.848Z,4.00
2022-08-12T20:00:53.583Z,3.80
2022-08-12T20:03:38.382Z,3.65
2022-08-12T20:06:15.978Z,3.63
2022-08-12T20:08:49.377Z,4.05
2022-08-12T20:12:14.636Z,3.70
2022-08-12T20:14:17.906Z,3.30
2022-08-12T20:16:52.338Z,3.78
2022-08-12T20:19:52.698Z,4.00
2022-08-12T20:22:24.407Z,3.63
2022-08-12T20:25:01.248Z,4.00
2022-08-12T20:28:03.280Z,3.65
2022-08-12T20:30:37.705Z,4.13
2022-08-12T20:33:17.430Z,4.00
2022-08-12T20:36:13.635Z,4.30
2022-08-12T20:38:46.767Z,3.97
2022-08-12T20:41:19.322Z,3.65
2022-08-12T20:43:50.401Z,4.30
2022-08-12T20:46:19.457Z,4.15
2022-08-12T20:48:54.934Z,3.75
2022-08-12T20:51:27.698Z,4.20
2022-08-12T20:53:59.472Z,4.18
2022-08-12T20:56:33.003Z,4.30
2022-08-12T20:59:04.845Z,4.15
2022-08-12T21:01:46.230Z,4.53
2022-08-12T21:04:35.867Z,4.68
2022-08-12T21:07:08.936Z,4.38
2022-08-12T21:09:42.682Z,4.20
2022-08-12T21:12:28.309Z,4.70
2022-08-12T21:15:23.565Z,4.70
2022-08-12T21:18:15.563Z,4.35
2022-08-12T21:20:52.470Z,5.05
2022-08-12T21:23:22.980Z,4.63
2022-08-12T21:26:01.067Z,5.03
2022-08-12T21:28:31.684Z,4.95
2022-08-12T21:32:35.173Z,4.70
2022-08-12T21:34:07.451Z,4.68
2022-08-12T21:36:39.759Z,4.85
2022-08-12T21:39:20.127Z,4.82
2022-08-12T21:41:52.643Z,5.07
2022-08-12T21:44:59.086Z,5.07
2022-08-12T21:47:21.574Z,5.00
2022-08-12T21:50:02.495Z,5.05
2022-08-12T21:52:34.918Z,5.35
2022-08-12T21:55:08.481Z,5.15
2022-08-12T21:57:53.773Z,5.10
2022-08-12T22:00:32.189Z,5.43
2022-08-12T22:04:01.347Z,5.35
2022-08-12T22:06:31.584Z,5.30
2022-08-12T22:09:16.175Z,5.57
2022-08-12T22:11:56.951Z,5.30
2022-08-12T22:14:30.336Z,5.57
2022-08-12T22:17:00.585Z,5.80
2022-08-12T22:19:28.915Z,5.80
2022-08-12T22:22:04.024Z,5.60
2022-08-12T22:24:33.510Z,5.75
2022-08-12T22:27:18.070Z,6.22
2022-08-12T22:30:16.330Z,5.88
2022-08-12T22:32:50.043Z,6.05
2022-08-12T22:35:56.022Z,6.00
2022-08-12T22:38:23.765Z,6.45
2022-08-12T22:40:54.287Z,6.40
2022-08-12T22:43:58.865Z,6.28
2022-08-12T22:46:52.986Z,7.00
2022-08-12T22:49:26.003Z,6.47
2022-08-12T22:52:18.578Z,7.00
2022-08-12T22:55:02.523Z,6.53
2022-08-12T22:57:49.223Z,6.70
2022-08-12T23:00:24.290Z,7.00
2022-08-12T23:03:02.905Z,6.95
2022-08-12T23:05:36.857Z,7.00
2022-08-12T23:08:22.253Z,6.88
2022-08-12T23:10:51.010Z,6.68
2022-08-12T23:13:42.311Z,7.03
2022-08-12T23:16:28.065Z,7.10
2022-08-12T23:19:09.580Z,7.22
2022-08-12T23:22:06.331Z,7.60
2022-08-12T23:24:31.427Z,7.45
2022-08-12T23:27:18.325Z,7.45
2022-08-12T23:30:17.638Z,7.30
2022-08-12T23:32:37.285Z,7.10
2022-08-12T23:35:09.211Z,6.95
2022-08-12T23:37:53.779Z,7.63
2022-08-12T23:40:24.504Z,7.57
2022-08-12T23:42:54.869Z,7.88
2022-08-12T23:45:31.623Z,7.85
2022-08-12T23:48:02.733Z,7.20
2022-08-12T23:50:34.317Z,7.00
2022-08-12T23:53:05.679Z,7.47
2022-08-12T23:55:38.274Z,7.13
2022-08-12T23:58:17.507Z,7.63
